sensor_id;sensor_type;location;lat;lon;timestamp;P1;durP1;ratioP1;P2;durP2;ratioP2
9240;SDS011;53485;49.326;9.738;2022-12-11T00:00:28;19.43;;;12.03;;
9240;SDS011;53485;49.326;9.738;2022-12-11T00:02:56;30.80;;;15.63;;
9240;SDS011;53485;49.326;9.738;2022-12-11T00:05:23;29.70;;;16.13;;
9240;SDS011;53485;49.326;9.738;2022-12-11T00:07:51;24.13;;;13.17;;
9240;SDS011;53485;49.326;9.738;2022-12-11T00:10:18;26.83;;;14.20;;
9240;SDS011;53485;49.326;9.738;2022-12-11T00:12:45;22.70;;;12.63;;
9240;SDS011;53485;49.326;9.738;2022-12-11T00:15:13;30.43;;;15.87;;
9240;SDS011;53485;49.326;9.738;2022-12-11T00:17:40;22.57;;;13.17;;
9240;SDS011;53485;49.326;9.738;2022-12-11T00:20:08;25.07;;;14.27;;
9240;SDS011;53485;49.326;9.738;2022-12-11T00:22:35;26.37;;;15.20;;
9240;SDS011;53485;49.326;9.738;2022-12-11T00:25:03;22.17;;;12.50;;
9240;SDS011;53485;49.326;9.738;2022-12-11T00:27:30;21.33;;;12.20;;
9240;SDS011;53485;49.326;9.738;2022-12-11T00:29:58;22.37;;;12.40;;
9240;SDS011;53485;49.326;9.738;2022-12-11T00:32:25;22.37;;;13.00;;
9240;SDS011;53485;49.326;9.738;2022-12-11T00:34:52;23.17;;;12.93;;
9240;SDS011;53485;49.326;9.738;2022-12-11T00:37:19;22.10;;;13.33;;
9240;SDS011;53485;49.326;9.738;2022-12-11T00:39:47;22.07;;;13.27;;
9240;SDS011;53485;49.326;9.738;2022-12-11T00:42:14;24.13;;;14.23;;
9240;SDS011;53485;49.326;9.738;2022-12-11T00:44:41;24.90;;;14.67;;
9240;SDS011;53485;49.326;9.738;2022-12-11T00:47:09;28.30;;;15.27;;
9240;SDS011;53485;49.326;9.738;2022-12-11T00:49:36;30.70;;;15.83;;
9240;SDS011;53485;49.326;9.738;2022-12-11T00:52:03;27.80;;;16.33;;
9240;SDS011;53485;49.326;9.738;2022-12-11T00:54:32;30.63;;;16.20;;
9240;SDS011;53485;49.326;9.738;2022-12-11T00:56:58;27.00;;;15.57;;
9240;SDS011;53485;49.326;9.738;2022-12-11T00:59:26;29.37;;;16.27;;
9240;SDS011;53485;49.326;9.738;2022-12-11T01:01:52;29.80;;;15.97;;
9240;SDS011;53485;49.326;9.738;2022-12-11T01:04:19;31.47;;;15.73;;
9240;SDS011;53485;49.326;9.738;2022-12-11T01:06:46;28.70;;;15.90;;
9240;SDS011;53485;49.326;9.738;2022-12-11T01:09:14;29.30;;;16.50;;
9240;SDS011;53485;49.326;9.738;2022-12-11T01:11:58;29.77;;;14.77;;
9240;SDS011;53485;49.326;9.738;2022-12-11T01:14:25;27.73;;;15.53;;
9240;SDS011;53485;49.326;9.738;2022-12-11T01:16:53;26.30;;;15.40;;
9240;SDS011;53485;49.326;9.738;2022-12-11T01:19:20;28.50;;;15.63;;
9240;SDS011;53485;49.326;9.738;2022-12-11T01:21:48;31.37;;;17.43;;
9240;SDS011;53485;49.326;9.738;2022-12-11T01:24:15;29.10;;;17.10;;
9240;SDS011;53485;49.326;9.738;2022-12-11T01:26:42;28.87;;;17.20;;
9240;SDS011;53485;49.326;9.738;2022-12-11T01:29:09;31.73;;;16.97;;
9240;SDS011;53485;49.326;9.738;2022-12-11T01:31:37;30.33;;;16.83;;
9240;SDS011;53485;49.326;9.738;2022-12-11T01:34:04;27.83;;;16.27;;
9240;SDS011;53485;49.326;9.738;2022-12-11T01:36:32;33.33;;;18.20;;
9240;SDS011;53485;49.326;9.738;2022-12-11T01:38:59;31.70;;;17.60;;
9240;SDS011;53485;49.326;9.738;2022-12-11T01:41:27;32.90;;;17.57;;
9240;SDS011;53485;49.326;9.738;2022-12-11T01:43:56;32.00;;;17.43;;
9240;SDS011;53485;49.326;9.738;2022-12-11T01:46:23;32.33;;;18.83;;
9240;SDS011;53485;49.326;9.738;2022-12-11T01:48:49;38.27;;;19.33;;
9240;SDS011;53485;49.326;9.738;2022-12-11T01:51:17;35.60;;;19.57;;
9240;SDS011;53485;49.326;9.738;2022-12-11T01:53:47;39.17;;;20.70;;
9240;SDS011;53485;49.326;9.738;2022-12-11T01:56:12;39.13;;;19.73;;
9240;SDS011;53485;49.326;9.738;2022-12-11T01:58:40;37.43;;;20.23;;
9240;SDS011;53485;49.326;9.738;2022-12-11T02:01:07;38.53;;;19.87;;
9240;SDS011;53485;49.326;9.738;2022-12-11T02:03:33;38.00;;;19.97;;
9240;SDS011;53485;49.326;9.738;2022-12-11T02:06:01;36.90;;;19.57;;
9240;SDS011;53485;49.326;9.738;2022-12-11T02:08:27;34.57;;;18.90;;
9240;SDS011;53485;49.326;9.738;2022-12-11T02:11:14;32.07;;;17.97;;
9240;SDS011;53485;49.326;9.738;2022-12-11T02:13:43;30.63;;;16.47;;
9240;SDS011;53485;49.326;9.738;2022-12-11T02:16:18;35.10;;;18.47;;
9240;SDS011;53485;49.326;9.738;2022-12-11T02:18:47;35.07;;;17.73;;
9240;SDS011;53485;49.326;9.738;2022-12-11T02:23:59;31.93;;;17.43;;
9240;SDS011;53485;49.326;9.738;2022-12-11T02:29:29;33.13;;;17.67;;
9240;SDS011;53485;49.326;9.738;2022-12-11T02:31:57;35.73;;;17.87;;
9240;SDS011;53485;49.326;9.738;2022-12-11T02:34:32;33.30;;;17.67;;
9240;SDS011;53485;49.326;9.738;2022-12-11T02:37:01;32.43;;;17.80;;
9240;SDS011;53485;49.326;9.738;2022-12-11T02:39:27;32.17;;;18.33;;
9240;SDS011;53485;49.326;9.738;2022-12-11T02:41:54;29.27;;;16.10;;
9240;SDS011;53485;49.326;9.738;2022-12-11T02:44:23;32.60;;;17.17;;
9240;SDS011;53485;49.326;9.738;2022-12-11T02:46:48;29.97;;;16.23;;
9240;SDS011;53485;49.326;9.738;2022-12-11T02:49:15;33.47;;;17.93;;
9240;SDS011;53485;49.326;9.738;2022-12-11T02:51:42;30.33;;;17.10;;
9240;SDS011;53485;49.326;9.738;2022-12-11T02:54:13;28.37;;;15.03;;
9240;SDS011;53485;49.326;9.738;2022-12-11T02:56:40;29.87;;;16.27;;
9240;SDS011;53485;49.326;9.738;2022-12-11T02:59:08;30.83;;;17.07;;
9240;SDS011;53485;49.326;9.738;2022-12-11T03:01:33;29.73;;;17.43;;
9240;SDS011;53485;49.326;9.738;2022-12-11T03:04:00;28.73;;;17.00;;
9240;SDS011;53485;49.326;9.738;2022-12-11T03:06:31;31.70;;;16.90;;
9240;SDS011;53485;49.326;9.738;2022-12-11T03:08:57;30.57;;;17.57;;
9240;SDS011;53485;49.326;9.738;2022-12-11T03:11:24;33.07;;;16.00;;
9240;SDS011;53485;49.326;9.738;2022-12-11T03:13:51;28.77;;;15.70;;
9240;SDS011;53485;49.326;9.738;2022-12-11T03:16:24;29.03;;;15.07;;
9240;SDS011;53485;49.326;9.738;2022-12-11T03:19:05;29.83;;;16.83;;
9240;SDS011;53485;49.326;9.738;2022-12-11T03:21:37;33.73;;;16.83;;
9240;SDS011;53485;49.326;9.738;2022-12-11T03:24:08;33.23;;;17.80;;
9240;SDS011;53485;49.326;9.738;2022-12-11T03:26:45;34.03;;;17.73;;
9240;SDS011;53485;49.326;9.738;2022-12-11T03:29:17;29.93;;;16.73;;
9240;SDS011;53485;49.326;9.738;2022-12-11T03:31:44;36.17;;;18.30;;
9240;SDS011;53485;49.326;9.738;2022-12-11T03:34:20;32.23;;;17.47;;
9240;SDS011;53485;49.326;9.738;2022-12-11T03:36:38;34.97;;;18.13;;
9240;SDS011;53485;49.326;9.738;2022-12-11T03:39:06;31.80;;;17.77;;
9240;SDS011;53485;49.326;9.738;2022-12-11T03:41:32;33.23;;;17.73;;
9240;SDS011;53485;49.326;9.738;2022-12-11T03:43:59;34.33;;;17.80;;
9240;SDS011;53485;49.326;9.738;2022-12-11T03:46:29;34.60;;;17.73;;
9240;SDS011;53485;49.326;9.738;2022-12-11T03:48:54;33.57;;;19.03;;
9240;SDS011;53485;49.326;9.738;2022-12-11T03:51:20;34.20;;;18.50;;
9240;SDS011;53485;49.326;9.738;2022-12-11T03:53:47;32.43;;;17.40;;
9240;SDS011;53485;49.326;9.738;2022-12-11T03:56:14;36.50;;;19.93;;
9240;SDS011;53485;49.326;9.738;2022-12-11T03:58:41;35.73;;;18.47;;
9240;SDS011;53485;49.326;9.738;2022-12-11T04:01:09;32.20;;;17.27;;
9240;SDS011;53485;49.326;9.738;2022-12-11T04:03:36;35.20;;;18.33;;
9240;SDS011;53485;49.326;9.738;2022-12-11T04:06:02;35.00;;;18.80;;
9240;SDS011;53485;49.326;9.738;2022-12-11T04:08:29;36.63;;;19.30;;
9240;SDS011;53485;49.326;9.738;2022-12-11T04:10:57;35.23;;;18.17;;
9240;SDS011;53485;49.326;9.738;2022-12-11T04:13:29;36.00;;;19.37;;
9240;SDS011;53485;49.326;9.738;2022-12-11T04:15:57;35.63;;;18.70;;
9240;SDS011;53485;49.326;9.738;2022-12-11T04:18:24;35.83;;;19.57;;
9240;SDS011;53485;49.326;9.738;2022-12-11T04:20:57;36.43;;;20.73;;
9240;SDS011;53485;49.326;9.738;2022-12-11T04:23:30;37.57;;;19.17;;
9240;SDS011;53485;49.326;9.738;2022-12-11T04:26:09;38.90;;;18.97;;
9240;SDS011;53485;49.326;9.738;2022-12-11T04:28:34;35.27;;;18.57;;
9240;SDS011;53485;49.326;9.738;2022-12-11T04:31:01;38.27;;;19.83;;
9240;SDS011;53485;49.326;9.738;2022-12-11T04:33:28;41.60;;;20.03;;
9240;SDS011;53485;49.326;9.738;2022-12-11T04:35:57;39.50;;;21.47;;
9240;SDS011;53485;49.326;9.738;2022-12-11T04:38:23;38.43;;;18.73;;
9240;SDS011;53485;49.326;9.738;2022-12-11T04:40:56;40.67;;;21.63;;
9240;SDS011;53485;49.326;9.738;2022-12-11T04:43:25;38.20;;;20.13;;
9240;SDS011;53485;49.326;9.738;2022-12-11T04:48:29;40.57;;;21.13;;
9240;SDS011;53485;49.326;9.738;2022-12-11T04:50:57;40.17;;;21.53;;
9240;SDS011;53485;49.326;9.738;2022-12-11T04:53:24;45.80;;;23.33;;
9240;SDS011;53485;49.326;9.738;2022-12-11T04:55:51;47.23;;;24.07;;
9240;SDS011;53485;49.326;9.738;2022-12-11T04:58:18;45.63;;;24.80;;
9240;SDS011;53485;49.326;9.738;2022-12-11T05:00:46;46.97;;;24.73;;
9240;SDS011;53485;49.326;9.738;2022-12-11T05:03:13;46.80;;;24.43;;
9240;SDS011;53485;49.326;9.738;2022-12-11T05:05:40;44.07;;;24.23;;
9240;SDS011;53485;49.326;9.738;2022-12-11T05:08:07;44.73;;;24.13;;
9240;SDS011;53485;49.326;9.738;2022-12-11T05:10:34;49.83;;;24.47;;
9240;SDS011;53485;49.326;9.738;2022-12-11T05:13:02;43.77;;;22.87;;
9240;SDS011;53485;49.326;9.738;2022-12-11T05:15:29;49.43;;;24.93;;
9240;SDS011;53485;49.326;9.738;2022-12-11T05:17:56;46.07;;;23.83;;
9240;SDS011;53485;49.326;9.738;2022-12-11T05:20:23;43.67;;;21.77;;
9240;SDS011;53485;49.326;9.738;2022-12-11T05:22:50;44.43;;;23.43;;
9240;SDS011;53485;49.326;9.738;2022-12-11T05:25:18;45.20;;;23.37;;
9240;SDS011;53485;49.326;9.738;2022-12-11T05:27:45;51.20;;;26.23;;
9240;SDS011;53485;49.326;9.738;2022-12-11T05:30:13;48.67;;;25.20;;
9240;SDS011;53485;49.326;9.738;2022-12-11T05:32:40;44.73;;;22.80;;
9240;SDS011;53485;49.326;9.738;2022-12-11T05:35:07;45.80;;;21.90;;
9240;SDS011;53485;49.326;9.738;2022-12-11T05:37:35;43.67;;;22.80;;
9240;SDS011;53485;49.326;9.738;2022-12-11T05:40:02;44.50;;;22.57;;
9240;SDS011;53485;49.326;9.738;2022-12-11T05:42:30;46.83;;;22.57;;
9240;SDS011;53485;49.326;9.738;2022-12-11T05:44:57;41.43;;;22.30;;
9240;SDS011;53485;49.326;9.738;2022-12-11T05:47:24;44.07;;;22.63;;
9240;SDS011;53485;49.326;9.738;2022-12-11T05:49:52;40.30;;;21.10;;
9240;SDS011;53485;49.326;9.738;2022-12-11T05:52:19;41.17;;;21.07;;
9240;SDS011;53485;49.326;9.738;2022-12-11T05:54:47;37.80;;;20.70;;
9240;SDS011;53485;49.326;9.738;2022-12-11T05:57:13;37.13;;;19.70;;
9240;SDS011;53485;49.326;9.738;2022-12-11T05:59:40;40.80;;;21.43;;
9240;SDS011;53485;49.326;9.738;2022-12-11T06:02:07;45.43;;;21.87;;
9240;SDS011;53485;49.326;9.738;2022-12-11T06:04:35;46.97;;;21.93;;
9240;SDS011;53485;49.326;9.738;2022-12-11T06:07:02;47.23;;;23.67;;
9240;SDS011;53485;49.326;9.738;2022-12-11T06:09:30;59.93;;;24.93;;
9240;SDS011;53485;49.326;9.738;2022-12-11T06:11:57;45.83;;;22.20;;
9240;SDS011;53485;49.326;9.738;2022-12-11T06:14:25;48.27;;;24.27;;
9240;SDS011;53485;49.326;9.738;2022-12-11T06:16:52;41.77;;;21.70;;
9240;SDS011;53485;49.326;9.738;2022-12-11T06:19:19;44.60;;;22.67;;
9240;SDS011;53485;49.326;9.738;2022-12-11T06:21:46;47.27;;;23.50;;
9240;SDS011;53485;49.326;9.738;2022-12-11T06:24:14;43.07;;;20.83;;
9240;SDS011;53485;49.326;9.738;2022-12-11T06:26:41;46.47;;;22.83;;
9240;SDS011;53485;49.326;9.738;2022-12-11T06:29:08;49.37;;;23.53;;
9240;SDS011;53485;49.326;9.738;2022-12-11T06:31:36;43.37;;;23.20;;
9240;SDS011;53485;49.326;9.738;2022-12-11T06:34:03;46.53;;;23.33;;
9240;SDS011;53485;49.326;9.738;2022-12-11T06:36:31;43.53;;;22.93;;
9240;SDS011;53485;49.326;9.738;2022-12-11T06:38:58;50.73;;;24.43;;
9240;SDS011;53485;49.326;9.738;2022-12-11T06:41:25;43.10;;;24.00;;
9240;SDS011;53485;49.326;9.738;2022-12-11T06:43:53;48.07;;;24.27;;
9240;SDS011;53485;49.326;9.738;2022-12-11T06:46:20;44.53;;;23.90;;
9240;SDS011;53485;49.326;9.738;2022-12-11T06:48:47;49.00;;;24.10;;
9240;SDS011;53485;49.326;9.738;2022-12-11T06:51:15;62.47;;;29.13;;
9240;SDS011;53485;49.326;9.738;2022-12-11T06:53:41;60.67;;;28.27;;
9240;SDS011;53485;49.326;9.738;2022-12-11T06:56:08;71.03;;;33.57;;
9240;SDS011;53485;49.326;9.738;2022-12-11T06:58:34;49.00;;;25.33;;
9240;SDS011;53485;49.326;9.738;2022-12-11T07:01:02;48.83;;;24.30;;
9240;SDS011;53485;49.326;9.738;2022-12-11T07:03:28;52.40;;;25.87;;
9240;SDS011;53485;49.326;9.738;2022-12-11T07:06:01;50.80;;;25.27;;
9240;SDS011;53485;49.326;9.738;2022-12-11T07:08:29;50.83;;;25.30;;
9240;SDS011;53485;49.326;9.738;2022-12-11T07:11:03;50.30;;;25.93;;
9240;SDS011;53485;49.326;9.738;2022-12-11T07:13:29;49.87;;;26.60;;
9240;SDS011;53485;49.326;9.738;2022-12-11T07:15:57;51.17;;;25.40;;
9240;SDS011;53485;49.326;9.738;2022-12-11T07:18:23;50.17;;;25.87;;
9240;SDS011;53485;49.326;9.738;2022-12-11T07:20:50;53.27;;;26.67;;
9240;SDS011;53485;49.326;9.738;2022-12-11T07:23:17;46.67;;;24.53;;
9240;SDS011;53485;49.326;9.738;2022-12-11T07:25:45;49.27;;;25.43;;
9240;SDS011;53485;49.326;9.738;2022-12-11T07:28:12;46.53;;;24.00;;
9240;SDS011;53485;49.326;9.738;2022-12-11T07:30:40;50.53;;;24.67;;
9240;SDS011;53485;49.326;9.738;2022-12-11T07:33:07;46.93;;;23.83;;
9240;SDS011;53485;49.326;9.738;2022-12-11T07:35:34;49.27;;;25.23;;
9240;SDS011;53485;49.326;9.738;2022-12-11T07:38:02;50.77;;;26.00;;
9240;SDS011;53485;49.326;9.738;2022-12-11T07:40:29;52.63;;;25.37;;
9240;SDS011;53485;49.326;9.738;2022-12-11T07:42:55;54.20;;;25.80;;
9240;SDS011;53485;49.326;9.738;2022-12-11T07:45:23;51.33;;;25.07;;
9240;SDS011;53485;49.326;9.738;2022-12-11T07:47:50;53.77;;;25.97;;
9240;SDS011;53485;49.326;9.738;2022-12-11T07:50:17;51.63;;;26.50;;
9240;SDS011;53485;49.326;9.738;2022-12-11T07:52:43;51.70;;;25.47;;
9240;SDS011;53485;49.326;9.738;2022-12-11T07:55:10;56.73;;;25.93;;
9240;SDS011;53485;49.326;9.738;2022-12-11T07:57:37;58.53;;;25.47;;
9240;SDS011;53485;49.326;9.738;2022-12-11T08:00:04;56.37;;;26.63;;
9240;SDS011;53485;49.326;9.738;2022-12-11T08:02:32;60.67;;;27.30;;
9240;SDS011;53485;49.326;9.738;2022-12-11T08:05:00;55.57;;;25.63;;
9240;SDS011;53485;49.326;9.738;2022-12-11T08:07:27;55.67;;;26.70;;
9240;SDS011;53485;49.326;9.738;2022-12-11T08:09:54;58.10;;;27.10;;
9240;SDS011;53485;49.326;9.738;2022-12-11T08:12:22;63.10;;;28.27;;
9240;SDS011;53485;49.326;9.738;2022-12-11T08:14:49;61.27;;;28.70;;
9240;SDS011;53485;49.326;9.738;2022-12-11T08:17:17;52.97;;;25.40;;
9240;SDS011;53485;49.326;9.738;2022-12-11T08:19:44;63.03;;;28.83;;
9240;SDS011;53485;49.326;9.738;2022-12-11T08:22:12;60.43;;;27.17;;
9240;SDS011;53485;49.326;9.738;2022-12-11T08:24:39;62.37;;;28.27;;
9240;SDS011;53485;49.326;9.738;2022-12-11T08:27:06;56.97;;;26.53;;
9240;SDS011;53485;49.326;9.738;2022-12-11T08:29:34;54.43;;;26.80;;
9240;SDS011;53485;49.326;9.738;2022-12-11T08:32:01;54.30;;;24.53;;
9240;SDS011;53485;49.326;9.738;2022-12-11T08:34:29;54.80;;;25.63;;
9240;SDS011;53485;49.326;9.738;2022-12-11T08:36:56;47.57;;;22.33;;
9240;SDS011;53485;49.326;9.738;2022-12-11T08:39:23;44.83;;;23.57;;
9240;SDS011;53485;49.326;9.738;2022-12-11T08:41:50;44.73;;;23.03;;
9240;SDS011;53485;49.326;9.738;2022-12-11T08:44:18;44.00;;;21.53;;
9240;SDS011;53485;49.326;9.738;2022-12-11T08:46:45;42.47;;;20.70;;
9240;SDS011;53485;49.326;9.738;2022-12-11T08:49:13;47.03;;;21.90;;
9240;SDS011;53485;49.326;9.738;2022-12-11T08:51:40;39.70;;;21.30;;
9240;SDS011;53485;49.326;9.738;2022-12-11T08:54:08;46.87;;;23.03;;
9240;SDS011;53485;49.326;9.738;2022-12-11T08:56:34;46.57;;;22.13;;
9240;SDS011;53485;49.326;9.738;2022-12-11T08:59:01;43.13;;;21.20;;
9240;SDS011;53485;49.326;9.738;2022-12-11T09:01:28;45.70;;;23.23;;
9240;SDS011;53485;49.326;9.738;2022-12-11T09:03:56;42.37;;;20.83;;
9240;SDS011;53485;49.326;9.738;2022-12-11T09:06:23;51.90;;;24.23;;
9240;SDS011;53485;49.326;9.738;2022-12-11T09:08:50;49.97;;;23.77;;
9240;SDS011;53485;49.326;9.738;2022-12-11T09:11:17;46.77;;;23.07;;
9240;SDS011;53485;49.326;9.738;2022-12-11T09:13:43;42.90;;;22.13;;
9240;SDS011;53485;49.326;9.738;2022-12-11T09:16:11;42.47;;;21.43;;
9240;SDS011;53485;49.326;9.738;2022-12-11T09:18:37;46.03;;;21.07;;
9240;SDS011;53485;49.326;9.738;2022-12-11T09:21:04;43.33;;;23.00;;
9240;SDS011;53485;49.326;9.738;2022-12-11T09:23:30;36.73;;;19.77;;
9240;SDS011;53485;49.326;9.738;2022-12-11T09:25:57;37.03;;;17.73;;
9240;SDS011;53485;49.326;9.738;2022-12-11T09:28:25;33.20;;;17.80;;
9240;SDS011;53485;49.326;9.738;2022-12-11T09:30:52;37.10;;;18.83;;
9240;SDS011;53485;49.326;9.738;2022-12-11T09:33:20;40.17;;;19.60;;
9240;SDS011;53485;49.326;9.738;2022-12-11T09:36:02;36.97;;;19.20;;
9240;SDS011;53485;49.326;9.738;2022-12-11T09:38:29;44.97;;;22.00;;
9240;SDS011;53485;49.326;9.738;2022-12-11T09:40:56;41.70;;;21.63;;
9240;SDS011;53485;49.326;9.738;2022-12-11T09:45:58;33.00;;;18.03;;
9240;SDS011;53485;49.326;9.738;2022-12-11T09:48:24;35.07;;;16.70;;
9240;SDS011;53485;49.326;9.738;2022-12-11T09:50:52;35.13;;;17.93;;
9240;SDS011;53485;49.326;9.738;2022-12-11T09:53:22;34.43;;;16.87;;
9240;SDS011;53485;49.326;9.738;2022-12-11T09:55:49;35.20;;;18.60;;
9240;SDS011;53485;49.326;9.738;2022-12-11T09:58:18;33.47;;;17.43;;
9240;SDS011;53485;49.326;9.738;2022-12-11T10:00:45;41.63;;;19.30;;
9240;SDS011;53485;49.326;9.738;2022-12-11T10:03:19;37.63;;;19.07;;
9240;SDS011;53485;49.326;9.738;2022-12-11T10:08:36;45.37;;;22.57;;
9240;SDS011;53485;49.326;9.738;2022-12-11T10:11:07;45.13;;;21.20;;
9240;SDS011;53485;49.326;9.738;2022-12-11T10:13:46;46.33;;;22.20;;
9240;SDS011;53485;49.326;9.738;2022-12-11T10:16:14;47.10;;;22.53;;
9240;SDS011;53485;49.326;9.738;2022-12-11T10:18:46;44.87;;;22.20;;
9240;SDS011;53485;49.326;9.738;2022-12-11T10:21:12;50.67;;;22.53;;
9240;SDS011;53485;49.326;9.738;2022-12-11T10:23:43;45.87;;;22.80;;
9240;SDS011;53485;49.326;9.738;2022-12-11T10:26:11;45.70;;;22.23;;
9240;SDS011;53485;49.326;9.738;2022-12-11T10:28:36;45.23;;;22.30;;
9240;SDS011;53485;49.326;9.738;2022-12-11T10:31:09;43.90;;;21.30;;
9240;SDS011;53485;49.326;9.738;2022-12-11T10:36:29;41.33;;;20.97;;
9240;SDS011;53485;49.326;9.738;2022-12-11T10:38:54;51.57;;;23.33;;
9240;SDS011;53485;49.326;9.738;2022-12-11T10:41:23;46.07;;;22.30;;
9240;SDS011;53485;49.326;9.738;2022-12-11T10:43:49;46.67;;;22.90;;
9240;SDS011;53485;49.326;9.738;2022-12-11T10:46:16;46.87;;;22.40;;
9240;SDS011;53485;49.326;9.738;2022-12-11T10:48:45;44.97;;;21.97;;
9240;SDS011;53485;49.326;9.738;2022-12-11T10:51:11;50.70;;;24.97;;
9240;SDS011;53485;49.326;9.738;2022-12-11T10:53:39;52.03;;;23.97;;
9240;SDS011;53485;49.326;9.738;2022-12-11T10:56:05;55.40;;;25.80;;
9240;SDS011;53485;49.326;9.738;2022-12-11T10:58:32;54.80;;;25.37;;
9240;SDS011;53485;49.326;9.738;2022-12-11T11:06:19;54.53;;;25.27;;
9240;SDS011;53485;49.326;9.738;2022-12-11T11:08:46;49.57;;;21.30;;
9240;SDS011;53485;49.326;9.738;2022-12-11T11:11:21;39.70;;;19.00;;
9240;SDS011;53485;49.326;9.738;2022-12-11T11:16:31;47.17;;;19.93;;
9240;SDS011;53485;49.326;9.738;2022-12-11T11:18:58;35.07;;;17.43;;
9240;SDS011;53485;49.326;9.738;2022-12-11T11:21:25;40.83;;;19.57;;
9240;SDS011;53485;49.326;9.738;2022-12-11T11:23:52;41.10;;;19.70;;
9240;SDS011;53485;49.326;9.738;2022-12-11T11:26:19;42.63;;;20.13;;
9240;SDS011;53485;49.326;9.738;2022-12-11T11:28:46;42.87;;;19.70;;
9240;SDS011;53485;49.326;9.738;2022-12-11T11:31:13;49.60;;;21.93;;
9240;SDS011;53485;49.326;9.738;2022-12-11T11:34:17;42.27;;;21.13;;
9240;SDS011;53485;49.326;9.738;2022-12-11T11:36:27;41.73;;;20.00;;
9240;SDS011;53485;49.326;9.738;2022-12-11T11:39:01;41.23;;;19.30;;
9240;SDS011;53485;49.326;9.738;2022-12-11T11:41:28;41.33;;;20.03;;
9240;SDS011;53485;49.326;9.738;2022-12-11T11:43:55;35.67;;;17.97;;
9240;SDS011;53485;49.326;9.738;2022-12-11T11:46:23;39.43;;;19.07;;
9240;SDS011;53485;49.326;9.738;2022-12-11T11:48:50;35.90;;;17.87;;
9240;SDS011;53485;49.326;9.738;2022-12-11T11:51:23;39.23;;;19.43;;
9240;SDS011;53485;49.326;9.738;2022-12-11T11:53:50;43.20;;;20.27;;
9240;SDS011;53485;49.326;9.738;2022-12-11T11:56:21;41.10;;;18.50;;
9240;SDS011;53485;49.326;9.738;2022-12-11T11:58:50;38.40;;;19.97;;
9240;SDS011;53485;49.326;9.738;2022-12-11T12:01:16;33.83;;;17.90;;
9240;SDS011;53485;49.326;9.738;2022-12-11T12:03:44;39.00;;;19.77;;
9240;SDS011;53485;49.326;9.738;2022-12-11T12:06:15;54.53;;;25.10;;
9240;SDS011;53485;49.326;9.738;2022-12-11T12:08:57;52.17;;;25.07;;
9240;SDS011;53485;49.326;9.738;2022-12-11T12:14:07;60.13;;;25.50;;
9240;SDS011;53485;49.326;9.738;2022-12-11T12:16:57;59.20;;;26.23;;
9240;SDS011;53485;49.326;9.738;2022-12-11T12:19:32;59.90;;;25.00;;
9240;SDS011;53485;49.326;9.738;2022-12-11T12:21:56;58.50;;;25.43;;
9240;SDS011;53485;49.326;9.738;2022-12-11T12:24:29;55.27;;;25.80;;
9240;SDS011;53485;49.326;9.738;2022-12-11T12:26:56;55.60;;;24.33;;
9240;SDS011;53485;49.326;9.738;2022-12-11T12:35:03;44.53;;;20.57;;
9240;SDS011;53485;49.326;9.738;2022-12-11T12:37:39;47.60;;;21.00;;
9240;SDS011;53485;49.326;9.738;2022-12-11T12:40:24;47.33;;;21.23;;
9240;SDS011;53485;49.326;9.738;2022-12-11T12:43:23;45.57;;;22.17;;
9240;SDS011;53485;49.326;9.738;2022-12-11T12:45:50;41.00;;;19.17;;
9240;SDS011;53485;49.326;9.738;2022-12-11T12:48:15;42.07;;;19.77;;
9240;SDS011;53485;49.326;9.738;2022-12-11T12:50:43;43.20;;;20.63;;
9240;SDS011;53485;49.326;9.738;2022-12-11T12:53:13;39.93;;;19.73;;
9240;SDS011;53485;49.326;9.738;2022-12-11T12:55:36;42.33;;;19.80;;
9240;SDS011;53485;49.326;9.738;2022-12-11T12:58:04;43.43;;;20.00;;
9240;SDS011;53485;49.326;9.738;2022-12-11T13:00:32;40.57;;;19.40;;
9240;SDS011;53485;49.326;9.738;2022-12-11T13:03:09;44.43;;;20.37;;
9240;SDS011;53485;49.326;9.738;2022-12-11T13:05:44;45.27;;;19.37;;
9240;SDS011;53485;49.326;9.738;2022-12-11T13:08:11;41.00;;;20.73;;
9240;SDS011;53485;49.326;9.738;2022-12-11T13:10:38;42.37;;;21.50;;
9240;SDS011;53485;49.326;9.738;2022-12-11T13:13:04;45.93;;;21.83;;
9240;SDS011;53485;49.326;9.738;2022-12-11T13:15:33;46.47;;;22.17;;
9240;SDS011;53485;49.326;9.738;2022-12-11T13:18:00;46.50;;;20.90;;
9240;SDS011;53485;49.326;9.738;2022-12-11T13:20:28;45.23;;;23.03;;
9240;SDS011;53485;49.326;9.738;2022-12-11T13:23:29;49.47;;;22.13;;
9240;SDS011;53485;49.326;9.738;2022-12-11T13:25:47;51.97;;;26.10;;
9240;SDS011;53485;49.326;9.738;2022-12-11T13:31:04;47.23;;;21.73;;
9240;SDS011;53485;49.326;9.738;2022-12-11T13:33:32;39.57;;;20.40;;
9240;SDS011;53485;49.326;9.738;2022-12-11T13:36:03;46.27;;;21.87;;
9240;SDS011;53485;49.326;9.738;2022-12-11T13:38:31;42.60;;;20.60;;
9240;SDS011;53485;49.326;9.738;2022-12-11T13:40:58;47.07;;;21.47;;
9240;SDS011;53485;49.326;9.738;2022-12-11T13:43:26;40.03;;;19.87;;
9240;SDS011;53485;49.326;9.738;2022-12-11T13:45:54;44.03;;;20.47;;
9240;SDS011;53485;49.326;9.738;2022-12-11T13:48:28;41.87;;;21.57;;
9240;SDS011;53485;49.326;9.738;2022-12-11T13:50:54;49.47;;;21.47;;
9240;SDS011;53485;49.326;9.738;2022-12-11T13:53:20;44.03;;;20.43;;
9240;SDS011;53485;49.326;9.738;2022-12-11T13:58:23;46.27;;;21.10;;
9240;SDS011;53485;49.326;9.738;2022-12-11T14:03:29;51.13;;;23.23;;
9240;SDS011;53485;49.326;9.738;2022-12-11T14:05:55;45.67;;;21.23;;
9240;SDS011;53485;49.326;9.738;2022-12-11T14:08:23;41.87;;;20.97;;
9240;SDS011;53485;49.326;9.738;2022-12-11T14:10:52;48.17;;;21.40;;
9240;SDS011;53485;49.326;9.738;2022-12-11T14:13:21;44.03;;;21.43;;
9240;SDS011;53485;49.326;9.738;2022-12-11T14:15:47;44.27;;;21.30;;
9240;SDS011;53485;49.326;9.738;2022-12-11T14:18:16;40.17;;;20.27;;
9240;SDS011;53485;49.326;9.738;2022-12-11T14:20:41;44.93;;;21.13;;
9240;SDS011;53485;49.326;9.738;2022-12-11T14:25:41;44.10;;;21.67;;
9240;SDS011;53485;49.326;9.738;2022-12-11T14:28:14;45.10;;;20.10;;
9240;SDS011;53485;49.326;9.738;2022-12-11T14:30:38;40.27;;;19.67;;
9240;SDS011;53485;49.326;9.738;2022-12-11T14:33:06;45.20;;;20.83;;
9240;SDS011;53485;49.326;9.738;2022-12-11T14:35:34;45.57;;;20.37;;
9240;SDS011;53485;49.326;9.738;2022-12-11T14:38:01;43.93;;;20.80;;
9240;SDS011;53485;49.326;9.738;2022-12-11T14:40:27;41.23;;;19.73;;
9240;SDS011;53485;49.326;9.738;2022-12-11T14:42:54;39.00;;;18.47;;
9240;SDS011;53485;49.326;9.738;2022-12-11T14:45:22;43.60;;;20.13;;
9240;SDS011;53485;49.326;9.738;2022-12-11T14:47:47;46.87;;;20.80;;
9240;SDS011;53485;49.326;9.738;2022-12-11T14:50:17;41.63;;;18.53;;
9240;SDS011;53485;49.326;9.738;2022-12-11T14:52:45;42.57;;;19.33;;
9240;SDS011;53485;49.326;9.738;2022-12-11T14:55:15;38.63;;;19.63;;
9240;SDS011;53485;49.326;9.738;2022-12-11T14:57:41;43.10;;;20.43;;
9240;SDS011;53485;49.326;9.738;2022-12-11T15:00:07;46.50;;;21.37;;
9240;SDS011;53485;49.326;9.738;2022-12-11T15:02:35;42.33;;;20.07;;
9240;SDS011;53485;49.326;9.738;2022-12-11T15:05:05;48.17;;;22.47;;
9240;SDS011;53485;49.326;9.738;2022-12-11T15:07:28;44.70;;;22.60;;
9240;SDS011;53485;49.326;9.738;2022-12-11T15:09:55;38.87;;;18.93;;
9240;SDS011;53485;49.326;9.738;2022-12-11T15:12:23;42.60;;;20.17;;
9240;SDS011;53485;49.326;9.738;2022-12-11T15:14:51;42.73;;;19.90;;
9240;SDS011;53485;49.326;9.738;2022-12-11T15:17:18;45.63;;;20.30;;
9240;SDS011;53485;49.326;9.738;2022-12-11T15:19:46;40.47;;;19.73;;
9240;SDS011;53485;49.326;9.738;2022-12-11T15:22:12;38.03;;;18.87;;